Time;durP1;ratioP1;P1;durP2;ratioP2;P2;SDS_P1;SDS_P2;PMS_P1;PMS_P2;Temp;Humidity;BMP_temperature;BMP_pressure;BME280_temperature;BME280_humidity;BME280_pressure;Samples;Min_cycle;Max_cycle;Signal;HPM_P1;HPM_P2
2023/05/21 00:02:18;;;;;;;2.20;1.50;;;;;;;;;;5013772;28;20148;-31
2023/05/21 00:04:45;;;;;;;1.50;1.40;;;20.40;75.10;;;;;;5013420;28;20089;-32
2023/05/21 00:07:14;;;;;;;1.95;1.70;;;19.50;62.90;;;;;;5013726;28;20046;-32
2023/05/21 00:09:40;;;;;;;1.90;1.45;;;19.90;74.40;;;;;;5013548;28;20046;-32
2023/05/21 00:12:07;;;;;;;2.22;1.55;;;20.00;75.30;;;;;;5013398;28;20125;-33
2023/05/21 00:14:35;;;;;;;1.65;1.40;;;19.50;56.30;;;;;;5013097;28;20422;-32
2023/05/21 00:17:02;;;;;;;1.38;1.20;;;20.40;75.00;;;;;;5013091;28;20699;-33
2023/05/21 00:19:31;;;;;;;1.88;1.60;;;19.00;74.40;;;;;;5013251;28;20050;-32
2023/05/21 00:22:01;;;;;;;3.25;1.60;;;;;;;;;;5012878;28;20502;-32
2023/05/21 00:24:28;;;;;;;2.50;1.77;;;19.80;74.60;;;;;;5013039;28;20415;-33
2023/05/21 00:26:54;;;;;;;1.85;1.30;;;18.40;69.90;;;;;;5013483;28;20489;-32
2023/05/21 00:29:21;;;;;;;2.38;1.67;;;19.40;74.50;;;;;;5013111;28;20045;-32
2023/05/21 00:31:51;;;;;;;2.00;1.50;;;19.30;74.40;;;;;;5012752;28;20665;-32
2023/05/21 00:34:17;;;;;;;1.98;1.65;;;20.30;74.60;;;;;;5013012;28;20054;-32
2023/05/21 00:36:45;;;;;;;1.80;1.50;;;19.50;56.30;;;;;;5012447;28;20053;-31
2023/05/21 00:39:12;;;;;;;2.08;1.58;;;19.80;74.30;;;;;;5013109;28;20056;-33
2023/05/21 00:41:39;;;;;;;2.65;1.80;;;;;;;;;;5012559;28;20092;-31
2023/05/21 00:44:06;;;;;;;2.20;1.80;;;20.00;74.40;;;;;;5012451;28;20133;-33
2023/05/21 00:46:33;;;;;;;1.58;1.35;;;;;;;;;;5012597;28;20077;-31
2023/05/21 00:49:01;;;;;;;1.63;1.30;;;20.00;56.50;;;;;;5012695;28;20049;-32
2023/05/21 00:51:29;;;;;;;2.30;1.55;;;20.50;75.10;;;;;;5012156;28;20050;-32
2023/05/21 00:53:56;;;;;;;1.60;1.40;;;19.20;74.70;;;;;;5012312;28;20072;-32
2023/05/21 00:56:23;;;;;;;1.67;1.33;;;19.00;74.80;;;;;;5012853;28;20089;-32
2023/05/21 00:58:50;;;;;;;2.45;1.60;;;19.80;74.60;;;;;;5012660;28;20133;-32
2023/05/21 01:01:18;;;;;;;2.08;1.63;;;19.50;56.20;;;;;;5012108;28;20510;-32
2023/05/21 01:03:44;;;;;;;1.80;1.58;;;19.10;74.80;;;;;;5012055;28;20533;-32
2023/05/21 01:06:13;;;;;;;1.95;1.50;;;19.50;56.20;;;;;;5012396;28;20244;-32
2023/05/21 01:08:40;;;;;;;1.83;1.35;;;;;;;;;;5012630;28;20050;-32
2023/05/21 01:11:07;;;;;;;2.25;1.60;;;19.80;74.80;;;;;;5012580;28;20053;-33
2023/05/21 01:13:36;;;;;;;1.80;1.42;;;19.10;56.40;;;;;;5012137;28;20060;-32
2023/05/21 01:16:05;;;;;;;2.90;1.52;;;20.00;75.30;;;;;;5012045;28;20053;-33
2023/05/21 01:18:33;;;;;;;2.20;1.50;;;19.40;63.10;;;;;;5012319;28;20108;-32
2023/05/21 01:21:00;;;;;;;2.20;1.50;;;19.70;75.00;;;;;;5012396;28;20053;-32
2023/05/21 01:23:28;;;;;;;2.28;1.38;;;19.40;74.90;;;;;;5011911;28;20060;-33
2023/05/21 01:25:55;;;;;;;1.75;1.50;;;20.00;75.20;;;;;;5012391;28;20136;-33
2023/05/21 01:28:22;;;;;;;2.00;1.58;;;;;;;;;;5012385;28;20050;-32
2023/05/21 01:30:49;;;;;;;1.90;1.58;;;19.60;75.00;;;;;;5011881;28;20045;-32
2023/05/21 01:33:18;;;;;;;2.40;1.52;;;19.40;74.90;;;;;;5012073;28;20129;-32
2023/05/21 01:35:47;;;;;;;1.98;1.58;;;19.40;75.00;;;;;;5011963;28;20089;-32
2023/05/21 01:38:17;;;;;;;1.60;1.50;;;19.20;65.50;;;;;;5011962;28;20049;-32
2023/05/21 01:40:47;;;;;;;1.90;1.52;;;19.30;74.80;;;;;;5012145;28;20133;-32
2023/05/21 01:43:13;;;;;;;2.28;1.73;;;19.00;73.90;;;;;;5011752;28;20050;-32
2023/05/21 01:45:42;;;;;;;1.65;1.42;;;19.40;56.10;;;;;;5011772;28;20064;-31
2023/05/21 01:48:10;;;;;;;1.90;1.50;;;19.40;56.10;;;;;;5011875;28;20133;-32
2023/05/21 01:50:38;;;;;;;1.98;1.50;;;20.10;56.50;;;;;;5011707;28;20057;-32
2023/05/21 01:53:05;;;;;;;1.95;1.50;;;;;;;;;;5012612;28;20099;-31
2023/05/21 01:55:32;;;;;;;1.88;1.50;;;19.80;74.70;;;;;;5016171;28;20057;-33
2023/05/21 01:58:00;;;;;;;1.92;1.60;;;19.40;56.00;;;;;;5015710;28;20133;-31
2023/05/21 02:00:28;;;;;;;2.17;1.67;;;;;;;;;;5016020;28;20046;-32
2023/05/21 02:02:55;;;;;;;2.00;1.48;;;19.10;73.80;;;;;;5015536;28;20045;-33
2023/05/21 02:05:21;;;;;;;2.00;1.50;;;19.10;70.80;;;;;;5015953;28;20053;-32
2023/05/21 02:07:50;;;;;;;2.25;1.60;;;19.30;73.90;;;;;;5015510;28;20128;-32
2023/05/21 02:10:17;;;;;;;1.98;1.65;;;;;;;;;;5015931;28;20057;-32
2023/05/21 02:12:44;;;;;;;4.03;1.80;;;19.90;74.20;;;;;;5015677;28;20060;-33
2023/05/21 02:15:16;;;;;;;2.72;1.45;;;19.40;56.10;;;;;;5015667;28;20056;-32
2023/05/21 02:17:43;;;;;;;1.90;1.40;;;19.70;75.00;;;;;;5015660;28;20053;-32
2023/05/21 02:20:11;;;;;;;3.35;1.80;;;19.50;67.60;;;;;;5015506;28;20157;-32
2023/05/21 02:22:38;;;;;;;2.83;1.50;;;;;;;;;;5015382;28;20137;-31
2023/05/21 02:25:06;;;;;;;1.88;1.58;;;18.80;73.70;;;;;;5015267;28;20053;-32
2023/05/21 02:27:35;;;;;;;1.88;1.42;;;19.50;67.80;;;;;;5015693;28;20045;-32
2023/05/21 02:30:02;;;;;;;1.83;1.55;;;18.20;55.40;;;;;;5014642;28;20052;-32
2023/05/21 02:32:31;;;;;;;1.95;1.58;;;19.20;73.80;;;;;;5015290;28;20057;-33
2023/05/21 02:34:58;;;;;;;1.98;1.70;;;19.00;57.00;;;;;;5015197;28;20056;-32
2023/05/21 02:37:26;;;;;;;3.10;1.90;;;19.50;73.10;;;;;;5014735;28;20054;-32
2023/05/21 02:39:53;;;;;;;2.83;1.70;;;19.60;73.90;;;;;;5014717;28;20511;-33
2023/05/21 02:42:19;;;;;;;1.55;1.45;;;20.00;74.70;;;;;;5015017;28;20054;-32
2023/05/21 02:44:46;;;;;;;2.60;1.98;;;;;;;;;;5014773;28;20565;-32
2023/05/21 02:47:13;;;;;;;1.92;1.50;;;19.10;73.80;;;;;;5015041;28;20529;-32
2023/05/21 02:49:41;;;;;;;2.30;1.42;;;19.70;74.10;;;;;;5015125;28;20132;-32
2023/05/21 02:52:08;;;;;;;1.95;1.50;;;19.70;74.10;;;;;;5014697;28;20609;-32
2023/05/21 02:54:35;;;;;;;2.47;1.50;;;20.40;74.90;;;;;;5014937;28;20045;-32
2023/05/21 02:57:02;;;;;;;1.90;1.55;;;20.20;74.40;;;;;;5014908;28;20058;-32
2023/05/21 02:59:29;;;;;;;1.75;1.55;;;;;;;;;;5014967;28;20060;-33
2023/05/21 03:01:55;;;;;;;1.42;1.33;;;19.30;73.90;;;;;;5014379;28;20137;-33
2023/05/21 03:04:22;;;;;;;2.38;1.63;;;;;;;;;;5014456;28;20050;-33
2023/05/21 03:06:54;;;;;;;2.05;1.80;;;19.70;66.70;;;;;;5015002;28;20064;-32
2023/05/21 03:09:20;;;;;;;2.67;1.75;;;19.80;74.70;;;;;;5014651;28;20491;-33
2023/05/21 03:11:47;;;;;;;2.08;1.50;;;18.60;60.00;;;;;;5014340;28;20507;-32
2023/05/21 03:14:15;;;;;;;1.80;1.50;;;20.00;74.40;;;;;;5014266;28;20133;-33
2023/05/21 03:16:42;;;;;;;2.63;1.70;;;18.50;61.00;;;;;;5014610;28;20120;-32
2023/05/21 03:19:09;;;;;;;2.45;1.60;;;19.70;74.20;;;;;;5014312;28;20530;-33
2023/05/21 03:21:36;;;;;;;4.03;1.67;;;;;;;;;;5014683;28;20112;-32
2023/05/21 03:24:05;;;;;;;2.15;1.42;;;19.30;55.90;;;;;;5013722;28;20088;-31
2023/05/21 03:26:32;;;;;;;2.78;1.60;;;19.30;67.50;;;;;;5014248;28;20077;-32
2023/05/21 03:29:00;;;;;;;2.72;1.80;;;;;;;;;;5014601;28;20108;-33
2023/05/21 03:31:27;;;;;;;1.98;1.60;;;;;;;;;;5014380;28;20052;-32
2023/05/21 03:33:54;;;;;;;3.45;1.70;;;;;;;;;;5014081;28;20060;-32
2023/05/21 03:36:21;;;;;;;1.98;1.52;;;19.60;74.10;;;;;;5013743;28;20046;-33
2023/05/21 03:38:47;;;;;;;2.00;1.60;;;19.00;73.90;;;;;;5014168;28;20137;-32
2023/05/21 03:41:15;;;;;;;2.35;1.60;;;19.40;65.10;;;;;;5013605;28;20510;-33
2023/05/21 03:43:42;;;;;;;2.13;1.58;;;19.70;65.70;;;;;;5013780;28;20415;-32
2023/05/21 03:46:09;;;;;;;2.30;1.73;;;19.00;74.20;;;;;;5013749;28;20132;-32
2023/05/21 03:48:36;;;;;;;1.95;1.55;;;19.30;74.00;;;;;;5014258;28;20050;-32
2023/05/21 03:51:02;;;;;;;2.85;1.80;;;19.10;60.70;;;;;;5013812;28;20533;-32
2023/05/21 03:53:29;;;;;;;2.22;1.77;;;19.80;75.20;;;;;;5013679;28;20080;-33
2023/05/21 03:55:56;;;;;;;1.70;1.52;;;;;;;;;;5013434;28;20689;-32
2023/05/21 03:58:25;;;;;;;2.22;1.70;;;19.40;74.90;;;;;;5013409;28;20491;-32
2023/05/21 04:00:52;;;;;;;1.90;1.52;;;18.50;73.70;;;;;;5013595;28;20042;-32
2023/05/21 04:03:19;;;;;;;2.58;1.60;;;19.00;58.50;;;;;;5013547;28;20046;-32
2023/05/21 04:05:46;;;;;;;2.38;1.70;;;;;;;;;;5013327;28;20068;-33
2023/05/21 04:08:12;;;;;;;2.42;1.60;;;19.40;74.00;;;;;;5013293;28;20519;-32
2023/05/21 04:10:39;;;;;;;2.08;1.60;;;18.30;66.50;;;;;;5013553;28;20128;-33
2023/05/21 04:13:06;;;;;;;1.95;1.60;;;18.80;73.70;;;;;;5013210;28;20050;-32
2023/05/21 04:15:34;;;;;;;2.20;1.60;;;19.20;60.20;;;;;;5012600;28;20063;-32
2023/05/21 04:18:01;;;;;;;3.00;1.85;;;;;;;;;;5013236;28;20111;-31
2023/05/21 04:20:28;;;;;;;2.33;1.70;;;19.50;74.40;;;;;;5013293;28;20054;-32
2023/05/21 04:22:55;;;;;;;2.00;1.70;;;19.20;74.00;;;;;;5013017;28;20137;-32
2023/05/21 04:25:22;;;;;;;2.78;1.48;;;19.00;73.80;;;;;;5013131;28;20050;-32
2023/05/21 04:27:49;;;;;;;1.55;1.45;;;19.50;74.10;;;;;;5012903;28;20058;-33
2023/05/21 04:30:18;;;;;;;3.40;1.90;;;;;;;;;;5013276;28;20056;-32
2023/05/21 04:32:47;;;;;;;1.80;1.50;;;19.40;74.10;;;;;;5013195;28;20050;-33
2023/05/21 04:35:15;;;;;;;2.85;1.60;;;;;;;;;;5013002;28;20077;-31
2023/05/21 04:37:44;;;;;;;1.73;1.50;;;;;;;;;;5012497;28;20046;-33
2023/05/21 04:40:16;;;;;;;2.78;1.70;;;19.20;55.90;;;;;;5013105;28;20065;-32
2023/05/21 04:42:44;;;;;;;2.50;1.52;;;19.20;74.00;;;;;;5012971;28;20177;-33
2023/05/21 04:45:11;;;;;;;2.30;1.70;;;19.40;74.50;;;;;;5012978;28;20406;-32
2023/05/21 04:47:37;;;;;;;2.20;1.63;;;18.70;73.80;;;;;;5012828;28;20046;-33
2023/05/21 04:50:07;;;;;;;1.85;1.58;;;19.60;63.30;;;;;;5012741;28;20141;-32
2023/05/21 04:52:34;;;;;;;1.90;1.70;;;;;;;;;;5012499;28;20121;-33
2023/05/21 04:55:01;;;;;;;2.10;1.70;;;19.10;74.80;;;;;;5012377;28;20057;-32
2023/05/21 04:57:29;;;;;;;2.65;1.58;;;;;;;;;;5012513;28;20512;-32
2023/05/21 04:59:56;;;;;;;1.88;1.60;;;19.60;74.60;;;;;;5012847;28;20406;-32
2023/05/21 05:02:23;;;;;;;2.05;1.50;;;18.70;73.70;;;;;;5012431;28;20062;-32
2023/05/21 05:04:50;;;;;;;2.50;1.77;;;19.10;74.90;;;;;;5012667;28;20050;-33
2023/05/21 05:07:18;;;;;;;1.92;1.70;;;19.20;55.90;;;;;;5012239;28;20049;-31
2023/05/21 05:09:45;;;;;;;2.10;1.80;;;;;;;;;;5004271;28;20046;-31
2023/05/21 05:12:11;;;;;;;1.88;1.58;;;18.50;73.60;;;;;;4992895;28;20052;-33
2023/05/21 05:14:38;;;;;;;2.22;1.58;;;19.00;74.40;;;;;;4993456;28;20054;-32
2023/05/21 05:17:06;;;;;;;2.00;1.45;;;19.20;55.90;;;;;;5003674;28;20137;-32
2023/05/21 05:19:34;;;;;;;1.70;1.50;;;;;;;;;;4997968;28;20466;-33
2023/05/21 05:22:00;;;;;;;1.50;1.40;;;19.20;74.80;;;;;;5005280;28;20667;-33
2023/05/21 05:24:28;;;;;;;2.22;1.70;;;19.30;62.90;;;;;;5012007;28;20128;-32
2023/05/21 05:26:55;;;;;;;2.53;1.60;;;;;;;;;;5011565;28;20410;-32
2023/05/21 05:29:22;;;;;;;2.13;1.50;;;19.10;74.80;;;;;;5011171;28;20147;-33
2023/05/21 05:31:49;;;;;;;2.10;1.63;;;;;;;;;;5011248;28;20127;-32
2023/05/21 05:34:16;;;;;;;1.75;1.40;;;19.10;73.90;;;;;;5010712;28;20545;-33
2023/05/21 05:36:43;;;;;;;1.65;1.40;;;19.00;74.30;;;;;;5011397;28;20052;-33
2023/05/21 05:39:10;;;;;;;2.20;1.60;;;19.60;61.60;;;;;;5012104;28;20128;-32
2023/05/21 05:41:38;;;;;;;1.92;1.50;;;19.40;74.90;;;;;;5011928;28;20136;-32
2023/05/21 05:44:05;;;;;;;1.73;1.52;;;19.20;55.80;;;;;;5011970;28;20133;-33
2023/05/21 05:46:32;;;;;;;2.08;1.50;;;;;;;;;;5012106;28;20108;-31
2023/05/21 05:48:58;;;;;;;1.90;1.52;;;19.10;74.80;;;;;;5011565;28;20046;-33
2023/05/21 05:51:25;;;;;;;1.88;1.70;;;;;;;;;;5011692;28;20052;-33
2023/05/21 05:53:52;;;;;;;1.70;1.38;;;18.60;66.30;;;;;;5011805;28;20054;-32
2023/05/21 05:56:19;;;;;;;3.15;1.52;;;19.10;73.90;;;;;;5012194;28;20246;-33
2023/05/21 05:58:47;;;;;;;1.88;1.48;;;19.20;74.00;;;;;;5012170;28;20054;-32
2023/05/21 06:01:13;;;;;;;1.80;1.60;;;18.90;74.40;;;;;;5011941;28;20133;-33
2023/05/21 06:03:41;;;;;;;2.30;1.52;;;;;;;;;;5011464;28;20129;-32
2023/05/21 06:06:07;;;;;;;2.08;1.55;;;18.90;73.90;;;;;;5011491;28;20060;-33
2023/05/21 06:08:34;;;;;;;1.70;1.40;;;19.60;75.00;;;;;;5012084;28;20257;-32
2023/05/21 06:11:02;;;;;;;1.50;1.40;;;19.30;74.50;;;;;;5011681;28;20571;-33
2023/05/21 06:13:29;;;;;;;2.13;1.60;;;19.30;72.10;;;;;;5011361;28;20137;-32
2023/05/21 06:15:57;;;;;;;1.30;1.20;;;20.10;74.80;;;;;;5011050;28;20567;-33
2023/05/21 06:18:24;;;;;;;2.55;1.80;;;20.10;74.80;;;;;;5011188;28;20057;-33
2023/05/21 06:20:51;;;;;;;2.30;1.35;;;;;;;;;;5011160;28;20129;-31
2023/05/21 06:23:17;;;;;;;1.92;1.33;;;19.90;74.00;;;;;;5011293;28;20129;-33
2023/05/21 06:25:44;;;;;;;1.80;1.40;;;20.20;74.80;;;;;;5006559;28;20570;-32
2023/05/21 06:28:11;;;;;;;3.10;1.55;;;;;;;;;;5001553;28;20067;-32
2023/05/21 06:30:38;;;;;;;2.55;1.48;;;19.80;75.10;;;;;;4992026;28;20133;-32
2023/05/21 06:33:06;;;;;;;1.90;1.50;;;19.40;55.80;;;;;;4991777;28;20061;-33
2023/05/21 06:35:35;;;;;;;2.42;1.60;;;;;;;;;;5008553;28;20402;-31
2023/05/21 06:38:02;;;;;;;1.95;1.42;;;20.40;74.10;;;;;;5007843;28;20046;-32
2023/05/21 06:40:29;;;;;;;1.52;1.27;;;19.90;74.60;;;;;;5013832;28;20046;-33
2023/05/21 06:42:56;;;;;;;2.17;1.40;;;19.40;61.80;;;;;;5011206;28;20042;-33
2023/05/21 06:45:23;;;;;;;1.88;1.48;;;20.00;73.90;;;;;;5014712;28;20198;-33
2023/05/21 06:47:50;;;;;;;1.95;1.45;;;;;;;;;;5014669;28;20153;-33
2023/05/21 06:50:19;;;;;;;3.00;1.35;;;19.70;73.40;;;;;;5014638;28;20056;-33
2023/05/21 06:52:45;;;;;;;1.88;1.20;;;20.20;59.50;;;;;;5014338;28;20423;-33
2023/05/21 06:55:12;;;;;;;1.98;1.30;;;19.90;73.60;;;;;;5014414;28;20056;-32
2023/05/21 06:57:39;;;;;;;1.77;1.27;;;20.30;73.50;;;;;;5014773;28;20053;-33
2023/05/21 07:00:08;;;;;;;2.10;1.50;;;20.20;58.30;;;;;;5014251;28;20100;-33
2023/05/21 07:02:35;;;;;;;1.77;1.20;;;20.00;71.90;;;;;;5014086;28;20668;-33
2023/05/21 07:05:02;;;;;;;2.10;1.30;;;20.60;73.30;;;;;;5013885;28;20125;-33
2023/05/21 07:07:30;;;;;;;1.77;1.30;;;20.40;60.30;;;;;;5013666;28;20041;-32
2023/05/21 07:09:56;;;;;;;2.13;1.40;;;21.30;60.40;;;;;;5014350;28;20050;-32
2023/05/21 07:12:23;;;;;;;1.70;1.30;;;20.90;62.90;;;;;;5010855;28;20077;-32
2023/05/21 07:14:50;;;;;;;1.35;1.13;;;;;;;;;;5014260;28;20046;-33
2023/05/21 07:17:17;;;;;;;2.90;1.35;;;19.90;71.20;;;;;;5013896;28;20056;-33
2023/05/21 07:19:44;;;;;;;1.48;1.10;;;21.30;72.30;;;;;;5014334;28;20048;-33
2023/05/21 07:22:11;;;;;;;2.15;1.40;;;;;;;;;;5011981;28;20132;-31
2023/05/21 07:24:39;;;;;;;1.70;1.30;;;21.00;71.70;;;;;;5011122;28;20116;-30
2023/05/21 07:27:06;;;;;;;1.70;1.30;;;21.10;72.50;;;;;;5013787;28;20053;-30
2023/05/21 07:29:33;;;;;;;1.95;1.48;;;21.00;54.00;;;;;;5014021;28;20054;-31
2023/05/21 07:32:00;;;;;;;2.40;1.48;;;21.20;71.40;;;;;;5013888;28;20056;-30
2023/05/21 07:34:26;;;;;;;1.98;1.25;;;19.90;70.90;;;;;;5013252;28;20479;-30
2023/05/21 07:36:53;;;;;;;1.90;1.30;;;20.90;56.10;;;;;;5010329;28;20128;-31
2023/05/21 07:39:20;;;;;;;1.60;1.30;;;20.80;71.70;;;;;;5013538;28;20127;-30
2023/05/21 07:41:48;;;;;;;1.83;1.30;;;20.60;72.00;;;;;;5013486;28;20050;-30
2023/05/21 07:44:14;;;;;;;2.10;1.33;;;20.70;71.60;;;;;;5013088;28;20132;-30
2023/05/21 07:46:42;;;;;;;1.77;1.27;;;;;;;;;;5013386;28;20064;-31
2023/05/21 07:49:15;;;;;;;2.17;1.30;;;20.80;71.60;;;;;;5013667;28;20129;-30
2023/05/21 07:51:42;;;;;;;1.67;1.20;;;;;;;;;;5010481;28;20045;-30
2023/05/21 07:54:08;;;;;;;2.00;1.30;;;22.20;72.00;;;;;;5012895;28;20056;-30
2023/05/21 07:56:35;;;;;;;1.55;1.20;;;21.50;72.10;;;;;;5013225;28;20120;-30
2023/05/21 07:59:03;;;;;;;2.33;1.40;;;21.10;53.90;;;;;;5007209;28;20109;-31
2023/05/21 08:01:31;;;;;;;2.08;1.30;;;21.70;62.80;;;;;;5001565;28;20054;-31
2023/05/21 08:03:59;;;;;;;2.50;1.50;;;21.40;66.40;;;;;;4993751;28;20046;-31
2023/05/21 08:06:26;;;;;;;1.27;1.17;;;;;;;;;;4993737;28;20061;-32
2023/05/21 08:08:54;;;;;;;2.10;1.30;;;;;;;;;;5005323;28;20073;-30
2023/05/21 08:11:30;;;;;;;1.98;1.27;;;20.20;71.90;;;;;;5007311;28;20514;-30
2023/05/21 08:13:56;;;;;;;1.73;1.33;;;20.50;59.50;;;;;;5008077;28;20132;-30
2023/05/21 08:16:24;;;;;;;2.13;1.20;;;20.70;55.30;;;;;;5013336;28;20133;-33
2023/05/21 08:18:51;;;;;;;1.55;1.30;;;21.60;72.60;;;;;;5009853;28;20054;-33
2023/05/21 08:21:18;;;;;;;1.40;1.20;;;20.50;71.90;;;;;;5007077;28;20415;-33
2023/05/21 08:23:45;;;;;;;3.10;1.30;;;21.10;71.90;;;;;;5010062;28;20096;-33
2023/05/21 08:26:15;;;;;;;3.08;1.27;;;;;;;;;;5011541;28;20049;-32
2023/05/21 08:28:41;;;;;;;1.63;1.10;;;21.90;58.10;;;;;;5012468;28;20120;-33
2023/05/21 08:31:08;;;;;;;3.10;1.65;;;20.80;72.10;;;;;;5013251;28;20129;-33
2023/05/21 08:33:37;;;;;;;1.85;1.20;;;21.10;57.00;;;;;;5012879;28;20045;-33
2023/05/21 08:36:04;;;;;;;2.17;1.40;;;21.90;63.30;;;;;;5011415;28;20057;-33
2023/05/21 08:38:31;;;;;;;1.90;1.33;;;21.10;60.30;;;;;;5013158;28;20053;-33
2023/05/21 08:40:59;;;;;;;1.48;1.20;;;20.10;71.00;;;;;;5011416;28;20450;-33
2023/05/21 08:43:26;;;;;;;1.73;1.23;;;20.40;71.40;;;;;;5012085;28;20132;-33
2023/05/21 08:45:53;;;;;;;1.88;1.40;;;;;;;;;;5012791;28;20132;-32
2023/05/21 08:48:21;;;;;;;2.05;1.30;;;20.50;71.70;;;;;;5012543;28;20050;-33
2023/05/21 08:50:49;;;;;;;2.60;1.50;;;21.50;59.90;;;;;;5013002;28;20406;-33
2023/05/21 08:53:16;;;;;;;2.83;1.50;;;20.70;64.00;;;;;;5012796;28;20074;-33
2023/05/21 08:55:43;;;;;;;3.78;1.35;;;19.80;71.10;;;;;;5012239;28;20124;-33
2023/05/21 08:58:10;;;;;;;2.85;1.48;;;20.60;61.20;;;;;;5012618;28;20049;-32
2023/05/21 09:00:36;;;;;;;3.28;1.45;;;21.70;72.50;;;;;;5012788;28;20134;-33
2023/05/21 09:03:06;;;;;;;2.05;1.40;;;20.60;72.40;;;;;;5012331;28;20145;-33
2023/05/21 09:05:33;;;;;;;1.77;1.33;;;21.00;70.30;;;;;;5012172;28;20081;-33
2023/05/21 09:08:04;;;;;;;1.80;1.38;;;20.40;72.30;;;;;;5012080;28;20515;-33
2023/05/21 09:10:33;;;;;;;1.95;1.23;;;20.50;71.70;;;;;;5012574;28;20139;-33
2023/05/21 09:13:00;;;;;;;2.00;1.40;;;21.10;60.90;;;;;;5012409;28;20096;-33
2023/05/21 09:15:27;;;;;;;2.75;1.58;;;20.60;71.70;;;;;;5012028;28;20048;-33
2023/05/21 09:17:54;;;;;;;2.67;1.60;;;;;;;;;;5012260;28;20464;-32
2023/05/21 09:20:25;;;;;;;1.80;1.30;;;20.30;72.00;;;;;;4994519;28;20116;-33
2023/05/21 09:22:52;;;;;;;3.42;1.60;;;20.30;57.30;;;;;;5011691;28;20425;-33
2023/05/21 09:25:21;;;;;;;3.05;1.10;;;20.70;54.40;;;;;;5012439;28;20090;-33
2023/05/21 09:27:48;;;;;;;1.88;1.40;;;;;;;;;;5011773;28;20137;-33
2023/05/21 09:30:16;;;;;;;1.92;1.40;;;20.50;71.70;;;;;;5012393;28;20049;-33
2023/05/21 09:32:43;;;;;;;3.38;1.40;;;;;;;;;;5012090;28;20052;-31
2023/05/21 09:35:10;;;;;;;1.85;1.45;;;20.40;71.60;;;;;;5012049;28;20049;-33
2023/05/21 09:37:38;;;;;;;2.58;1.30;;;20.60;71.80;;;;;;5011691;28;20049;-33
2023/05/21 09:40:11;;;;;;;2.10;1.35;;;20.90;72.80;;;;;;5012206;28;20056;-33
2023/05/21 09:42:39;;;;;;;2.53;1.60;;;20.40;72.50;;;;;;5011523;28;20407;-33
2023/05/21 09:45:07;;;;;;;2.67;1.60;;;20.40;72.20;;;;;;5011870;28;20423;-33
2023/05/21 09:47:34;;;;;;;1.67;1.30;;;21.40;72.10;;;;;;5011909;28;20582;-32
2023/05/21 09:50:01;;;;;;;2.33;1.50;;;20.30;72.50;;;;;;5011065;28;20133;-33
2023/05/21 09:52:29;;;;;;;2.45;1.40;;;20.80;65.80;;;;;;5002467;28;20038;-32
2023/05/21 09:54:55;;;;;;;2.03;1.35;;;21.30;58.30;;;;;;5003407;28;20125;-32
2023/05/21 09:57:25;;;;;;;2.97;1.38;;;20.70;54.40;;;;;;5012084;28;20072;-33
2023/05/21 09:59:53;;;;;;;2.88;1.60;;;21.70;69.50;;;;;;5005786;28;20053;-32
2023/05/21 10:02:21;;;;;;;2.20;1.50;;;20.70;54.40;;;;;;5010171;28;20046;-32
2023/05/21 10:04:48;;;;;;;2.03;1.50;;;20.90;55.40;;;;;;5005992;28;20049;-32
2023/05/21 10:07:16;;;;;;;2.42;1.38;;;20.90;72.00;;;;;;5007719;28;20082;-33
2023/05/21 10:09:43;;;;;;;1.77;1.30;;;20.90;65.90;;;;;;5002634;28;20058;-32
2023/05/21 10:12:10;;;;;;;1.88;1.48;;;;;;;;;;5001446;28;20476;-31
2023/05/21 10:14:37;;;;;;;2.03;1.50;;;20.70;61.30;;;;;;5002369;28;20518;-32
2023/05/21 10:17:06;;;;;;;2.63;1.60;;;20.70;54.40;;;;;;5004271;28;20410;-31
2023/05/21 10:19:35;;;;;;;3.65;1.60;;;20.40;59.60;;;;;;5006250;28;20124;-32
2023/05/21 10:22:03;;;;;;;3.17;1.65;;;20.50;58.60;;;;;;5010095;28;20519;-32
2023/05/21 10:24:30;;;;;;;3.45;1.88;;;21.00;71.90;;;;;;5014693;28;20407;-33
2023/05/21 10:26:57;;;;;;;3.55;1.48;;;;;;;;;;5012463;28;20164;-32
2023/05/21 10:29:23;;;;;;;2.72;1.60;;;19.90;71.40;;;;;;5014993;28;20120;-32
2023/05/21 10:31:50;;;;;;;1.65;1.30;;;;;;;;;;5008243;28;20046;-32
2023/05/21 10:34:19;;;;;;;2.08;1.42;;;20.70;54.50;;;;;;5015019;28;20052;-32
2023/05/21 10:36:45;;;;;;;2.55;1.42;;;19.60;71.40;;;;;;5010482;28;20054;-33
2023/05/21 10:39:12;;;;;;;1.73;1.33;;;20.70;54.60;;;;;;5014866;28;20434;-32
2023/05/21 10:41:43;;;;;;;1.45;1.30;;;20.80;72.00;;;;;;5014719;28;20133;-32
2023/05/21 10:44:13;;;;;;;2.63;1.40;;;21.10;72.00;;;;;;5014935;28;20054;-32
2023/05/21 10:47:20;;;;;;;2.35;1.50;;;20.80;72.60;;;;;;5014995;28;20509;-32
2023/05/21 10:50:16;;;;;;;2.08;1.48;;;20.50;57.80;;;;;;5007330;28;20125;-32
2023/05/21 10:52:46;;;;;;;;;;;20.60;55.10;;;;;;5004364;28;20045;-33
2023/05/21 10:55:19;;;;;;;2.17;1.50;;;20.60;54.80;;;;;;5014980;28;19921;-31
2023/05/21 10:58:13;;;;;;;2.30;1.65;;;20.80;72.40;;;;;;5007880;28;20052;-32
2023/05/21 11:00:40;;;;;;;1.58;1.30;;;;;;;;;;5003563;28;20585;-32
2023/05/21 11:03:06;;;;;;;2.60;1.70;;;20.80;72.20;;;;;;5014120;28;20487;-32
2023/05/21 11:05:41;;;;;;;1.80;1.45;;;20.60;54.60;;;;;;5007777;28;20125;-31
2023/05/21 11:08:21;;;;;;;4.70;1.48;;;20.70;54.60;;;;;;5008419;28;20064;-33
2023/05/21 11:10:51;;;;;;;2.47;1.60;;;20.70;54.60;;;;;;5014420;28;20057;-31
2023/05/21 11:13:20;;;;;;;2.08;1.50;;;;;;;;;;5013926;28;20053;-32
2023/05/21 11:16:13;;;;;;;1.90;1.60;;;20.40;69.70;;;;;;5014216;28;20045;-33
2023/05/21 11:18:59;;;;;;;1.60;1.35;;;20.40;55.70;;;;;;5011492;28;20130;-32
2023/05/21 11:21:29;;;;;;;2.15;1.70;;;20.70;54.50;;;;;;5006466;28;20084;-31
2023/05/21 11:23:59;;;;;;;2.55;1.67;;;21.70;61.60;;;;;;5013784;28;20104;-32
2023/05/21 11:26:27;;;;;;;1.90;1.60;;;20.80;58.20;;;;;;5013300;28;20049;-32
2023/05/21 11:29:06;;;;;;;2.05;1.40;;;21.80;72.30;;;;;;5013607;28;20133;-32
2023/05/21 11:31:39;;;;;;;2.53;1.60;;;20.50;66.00;;;;;;5011443;28;20045;-32
2023/05/21 11:34:14;;;;;;;2.15;1.60;;;20.80;54.30;;;;;;5009717;28;20492;-32
2023/05/21 11:36:44;;;;;;;2.33;1.70;;;20.80;72.50;;;;;;5013474;28;20050;-32
2023/05/21 11:39:12;;;;;;;2.25;1.67;;;;;;;;;;5014112;28;20146;-32
2023/05/21 11:41:56;;;;;;;1.77;1.40;;;20.90;54.30;;;;;;5014090;28;20049;-31
2023/05/21 11:44:38;;;;;;;5.47;1.80;;;20.70;71.70;;;;;;5010543;28;20046;-33
2023/05/21 11:47:05;;;;;;;2.33;1.50;;;21.80;63.80;;;;;;4999533;28;20503;-32
2023/05/21 11:49:56;;;;;;;2.08;1.63;;;20.10;71.30;;;;;;5002519;28;20058;-32
2023/05/21 11:52:42;;;;;;;2.53;1.60;;;21.00;54.40;;;;;;4994412;28;20117;-31
2023/05/21 11:55:10;;;;;;;3.38;1.95;;;21.00;64.90;;;;;;4976045;28;20050;-32
2023/05/21 11:57:37;;;;;;;3.88;1.60;;;21.10;72.70;;;;;;4993236;28;20051;-33
2023/05/21 12:00:12;;;;;;;2.35;1.80;;;21.10;65.90;;;;;;4997134;28;20132;-32
2023/05/21 12:02:40;;;;;;;5.43;1.83;;;;;;;;;;5013185;28;20068;-32
2023/05/21 12:05:07;;;;;;;3.38;1.77;;;19.90;59.10;;;;;;5006614;28;20053;-32
2023/05/21 12:07:37;;;;;;;3.20;1.70;;;21.60;72.00;;;;;;5013615;28;20104;-32
2023/05/21 12:10:04;;;;;;;1.88;1.60;;;21.10;69.80;;;;;;5013537;28;20049;-32
2023/05/21 12:12:31;;;;;;;4.82;1.88;;;20.40;72.30;;;;;;5012503;28;20136;-32
2023/05/21 12:14:58;;;;;;;2.63;1.98;;;21.20;62.20;;;;;;5013369;28;20053;-33
2023/05/21 12:17:25;;;;;;;3.35;1.70;;;21.20;54.70;;;;;;5013591;28;20132;-33
2023/05/21 12:19:53;;;;;;;2.75;1.75;;;21.00;57.10;;;;;;5012932;28;20092;-32
2023/05/21 12:22:20;;;;;;;2.50;1.83;;;21.40;72.70;;;;;;5012883;28;20121;-33
2023/05/21 12:24:48;;;;;;;4.00;1.90;;;21.60;72.40;;;;;;5013149;28;20042;-33
2023/05/21 12:27:15;;;;;;;2.72;1.58;;;21.50;71.90;;;;;;5012932;28;20077;-32
2023/05/21 12:29:43;;;;;;;3.08;1.70;;;21.20;54.80;;;;;;5005715;28;20104;-33
2023/05/21 12:32:11;;;;;;;5.78;1.98;;;21.30;71.90;;;;;;4998267;28;20133;-33
2023/05/21 12:34:42;;;;;;;1.85;1.55;;;22.10;73.00;;;;;;5013309;28;20042;-33
2023/05/21 12:37:08;;;;;;;4.35;1.73;;;21.10;58.20;;;;;;5012309;28;20093;-32
2023/05/21 12:39:42;;;;;;;2.75;1.80;;;21.30;54.50;;;;;;5013067;28;20133;-33
2023/05/21 12:42:10;;;;;;;3.13;1.80;;;21.70;72.20;;;;;;5012853;28;20128;-33
2023/05/21 12:44:38;;;;;;;3.28;1.75;;;20.80;71.30;;;;;;5012543;28;20488;-32
2023/05/21 12:47:05;;;;;;;1.92;1.60;;;22.10;73.00;;;;;;5012542;28;20056;-33
2023/05/21 12:49:36;;;;;;;4.00;2.25;;;22.20;72.70;;;;;;5012683;28;20140;-33
2023/05/21 12:52:08;;;;;;;2.78;2.08;;;21.40;54.70;;;;;;5012595;28;20053;-32
2023/05/21 12:54:36;;;;;;;6.72;2.00;;;21.00;61.10;;;;;;5012930;28;20052;-32
2023/05/21 12:57:11;;;;;;;2.70;1.85;;;21.60;56.90;;;;;;5012385;28;20054;-32
2023/05/21 12:59:47;;;;;;;3.58;1.95;;;21.30;72.40;;;;;;5012201;28;20137;-32
2023/05/21 13:02:15;;;;;;;3.67;1.70;;;21.70;72.50;;;;;;5011849;28;20156;-33
2023/05/21 13:04:42;;;;;;;3.90;1.90;;;21.40;72.60;;;;;;5012560;28;20050;-33
2023/05/21 13:07:09;;;;;;;2.33;1.90;;;;;;;;;;5012222;28;20132;-32
2023/05/21 13:09:36;;;;;;;2.45;2.00;;;22.20;58.40;;;;;;5012491;28;20081;-32
2023/05/21 13:12:03;;;;;;;3.65;1.90;;;21.60;71.80;;;;;;5012334;28;20129;-33